createdAt,value
2023-01-19T00:02:09.301Z,88.61
2023-01-19T00:05:04.088Z,88.60
2023-01-19T00:07:56.911Z,88.53
2023-01-19T00:10:52.391Z,88.00
2023-01-19T00:13:50.535Z,88.51
2023-01-19T00:16:43.502Z,88.46
2023-01-19T00:19:36.534Z,88.38
2023-01-19T00:22:29.270Z,88.94
2023-01-19T00:25:22.132Z,89.24
2023-01-19T00:28:17.043Z,89.57
2023-01-19T00:31:10.910Z,89.41
2023-01-19T00:34:03.989Z,89.48
2023-01-19T00:36:57.417Z,89.52
2023-01-19T00:39:50.279Z,89.58
2023-01-19T00:42:45.593Z,89.74
2023-01-19T00:45:38.516Z,89.55
2023-01-19T00:48:24.007Z,89.82
2023-01-19T00:51:16.746Z,89.95
2023-01-19T00:54:10.463Z,89.74
2023-01-19T00:57:03.589Z,89.18
2023-01-19T00:59:50.475Z,89.53
2023-01-19T01:02:45.073Z,89.46
2023-01-19T01:05:41.274Z,89.40
2023-01-19T01:08:33.458Z,89.40
2023-01-19T01:11:26.176Z,89.67
2023-01-19T01:14:19.470Z,89.69
2023-01-19T01:17:04.858Z,89.46
2023-01-19T01:19:58.117Z,89.59
2023-01-19T01:22:53.886Z,90.05
2023-01-19T01:25:46.734Z,89.85
2023-01-19T01:28:39.488Z,89.69
2023-01-19T01:31:32.283Z,89.58
2023-01-19T01:34:25.080Z,89.91
2023-01-19T01:37:18.954Z,90.10
2023-01-19T01:40:14.976Z,89.40
2023-01-19T01:43:08.003Z,89.20
2023-01-19T01:46:00.849Z,89.40
2023-01-19T01:49:01.941Z,89.39
2023-01-19T01:51:56.245Z,89.44
2023-01-19T01:54:42.240Z,89.65
2023-01-19T01:57:15.632Z,89.72
2023-01-19T02:00:10.836Z,89.97
2023-01-19T02:03:03.988Z,90.09
2023-01-19T02:06:01.645Z,90.01
2023-01-19T02:09:16.873Z,89.92
2023-01-19T02:12:27.275Z,90.03
2023-01-19T02:15:21.181Z,90.53
2023-01-19T02:18:09.178Z,90.33
2023-01-19T02:21:12.292Z,90.53
2023-01-19T02:24:06.148Z,90.51
2023-01-19T02:27:09.017Z,90.21
2023-01-19T02:30:03.797Z,89.94
2023-01-19T02:32:57.806Z,89.63
2023-01-19T02:35:53.217Z,89.95
2023-01-19T02:38:49.038Z,89.83
2023-01-19T02:41:47.884Z,89.46
2023-01-19T02:44:42.874Z,89.15
2023-01-19T02:47:43.246Z,88.93
2023-01-19T02:50:53.141Z,89.34
2023-01-19T02:54:14.856Z,89.50
2023-01-19T02:57:24.602Z,89.83
2023-01-19T03:00:36.756Z,89.86
2023-01-19T03:03:39.978Z,90.13
2023-01-19T03:06:44.871Z,90.24
2023-01-19T03:09:44.236Z,90.45
2023-01-19T03:12:45.334Z,90.42
2023-01-19T03:16:00.919Z,90.34
2023-01-19T03:18:56.743Z,90.41
2023-01-19T03:21:52.057Z,90.45
2023-01-19T03:24:47.302Z,90.60
2023-01-19T03:27:43.657Z,90.72
2023-01-19T03:30:40.280Z,90.78
2023-01-19T03:33:33.327Z,90.77
2023-01-19T03:36:33.732Z,90.74
2023-01-19T03:39:29.470Z,91.12
2023-01-19T03:42:22.903Z,90.95
2023-01-19T03:45:16.638Z,90.94
2023-01-19T03:48:10.520Z,91.42
2023-01-19T03:51:07.348Z,91.93
2023-01-19T03:54:01.463Z,92.36
2023-01-19T03:56:54.538Z,92.61
2023-01-19T03:59:45.973Z,92.79
2023-01-19T04:02:38.943Z,92.75
2023-01-19T04:05:31.850Z,92.78
2023-01-19T04:08:24.609Z,93.01
2023-01-19T04:11:17.411Z,92.88
2023-01-19T04:14:10.161Z,92.74
2023-01-19T04:17:03.275Z,92.37
2023-01-19T04:19:56.463Z,91.91
2023-01-19T04:22:49.826Z,91.42
2023-01-19T04:25:33.308Z,91.57
2023-01-19T04:28:26.171Z,91.44
2023-01-19T04:31:13.068Z,91.81
2023-01-19T04:34:06.082Z,91.74
2023-01-19T04:36:52.486Z,91.45
2023-01-19T04:39:45.487Z,91.35
2023-01-19T04:42:38.476Z,91.45
2023-01-19T04:45:31.560Z,91.70
2023-01-19T04:48:24.601Z,91.53
2023-01-19T04:51:16.321Z,91.80
2023-01-19T04:53:57.986Z,91.65
2023-01-19T04:56:51.075Z,91.27
2023-01-19T04:59:44.154Z,91.11
2023-01-19T05:02:28.910Z,90.69
2023-01-19T05:05:22.380Z,90.84
2023-01-19T05:08:15.381Z,91.20
2023-01-19T05:11:08.795Z,91.25
2023-01-19T05:14:01.797Z,91.20
2023-01-19T05:16:54.646Z,91.48
2023-01-19T05:19:47.926Z,91.47
2023-01-19T05:22:35.347Z,91.60
2023-01-19T05:25:21.283Z,91.65
2023-01-19T05:28:16.279Z,91.97
2023-01-19T05:31:09.978Z,91.91
2023-01-19T05:34:04.238Z,92.36
2023-01-19T05:36:37.313Z,92.51
2023-01-19T05:39:30.439Z,92.70
2023-01-19T05:42:24.197Z,92.45
2023-01-19T05:45:17.400Z,92.31
2023-01-19T05:48:11.143Z,92.08
2023-01-19T05:51:06.040Z,92.19
2023-01-19T05:53:58.933Z,92.32
2023-01-19T05:56:51.924Z,92.12
2023-01-19T05:59:38.007Z,92.05
2023-01-19T06:02:31.470Z,92.69
2023-01-19T06:05:17.390Z,92.75
2023-01-19T06:08:10.485Z,92.95
2023-01-19T06:11:03.529Z,92.88
2023-01-19T06:13:57.076Z,92.71
2023-01-19T06:16:50.177Z,92.66
2023-01-19T06:19:43.258Z,92.61
2023-01-19T06:22:36.544Z,91.80
2023-01-19T06:25:28.019Z,91.28
2023-01-19T06:28:13.558Z,90.95
2023-01-19T06:31:07.090Z,91.07
2023-01-19T06:34:00.015Z,91.24
2023-01-19T06:36:53.153Z,91.13
2023-01-19T06:39:46.124Z,91.01
2023-01-19T06:42:39.098Z,90.91
2023-01-19T06:45:32.358Z,91.21
2023-01-19T06:48:24.194Z,91.12
2023-01-19T06:51:17.081Z,90.99
2023-01-19T06:54:05.335Z,90.94
2023-01-19T06:56:58.421Z,90.92
2023-01-19T06:59:52.975Z,90.99
2023-01-19T07:02:47.358Z,90.95
2023-01-19T07:05:40.764Z,90.67
2023-01-19T07:08:34.250Z,90.93
2023-01-19T07:11:32.333Z,90.87
2023-01-19T07:14:23.926Z,91.10
2023-01-19T07:17:17.664Z,90.61
2023-01-19T07:20:14.558Z,90.41
2023-01-19T07:23:07.973Z,90.66
2023-01-19T07:26:02.321Z,90.64
2023-01-19T07:28:55.658Z,90.65
2023-01-19T07:31:49.240Z,90.44
2023-01-19T07:34:42.168Z,90.43
2023-01-19T07:37:27.684Z,90.43
2023-01-19T07:40:19.918Z,90.35
2023-01-19T07:43:12.821Z,90.52
2023-01-19T07:46:07.946Z,90.47
2023-01-19T07:49:00.965Z,90.40
2023-01-19T07:51:56.501Z,90.20
2023-01-19T07:54:51.030Z,90.23
2023-01-19T07:57:43.926Z,90.28
2023-01-19T08:00:29.758Z,90.33
2023-01-19T08:03:07.042Z,89.55
2023-01-19T08:05:40.578Z,89.23
2023-01-19T08:08:13.523Z,89.11
2023-01-19T08:10:46.339Z,89.08
2023-01-19T08:13:32.366Z,88.71
2023-01-19T08:16:16.093Z,89.25
2023-01-19T08:18:49.181Z,89.10
2023-01-19T08:21:41.984Z,88.68
2023-01-19T08:24:35.392Z,88.71
2023-01-19T08:27:20.664Z,88.71
2023-01-19T08:30:14.871Z,88.67
2023-01-19T08:33:08.352Z,88.37
2023-01-19T08:35:54.189Z,88.25
2023-01-19T08:38:47.522Z,87.72
2023-01-19T08:41:40.418Z,87.64
2023-01-19T08:44:33.590Z,87.33
2023-01-19T08:47:25.585Z,86.93
2023-01-19T08:50:19.545Z,86.86
2023-01-19T08:53:13.337Z,86.74
2023-01-19T08:56:12.385Z,87.06
2023-01-19T08:59:09.858Z,86.71
2023-01-19T09:01:56.871Z,86.32
2023-01-19T09:04:30.124Z,86.63
2023-01-19T09:07:23.042Z,86.54
2023-01-19T09:10:16.453Z,86.52
2023-01-19T09:13:13.089Z,86.01
2023-01-19T09:16:08.154Z,86.18
2023-01-19T09:19:01.178Z,86.73
2023-01-19T09:21:34.656Z,86.73
2023-01-19T09:24:28.817Z,86.48
2023-01-19T09:27:21.899Z,86.70
2023-01-19T09:29:57.429Z,86.94
2023-01-19T09:32:50.590Z,87.10
2023-01-19T09:35:45.545Z,87.16
2023-01-19T09:38:38.567Z,87.36
2023-01-19T09:41:26.171Z,87.46
2023-01-19T09:44:21.604Z,87.33
2023-01-19T09:47:24.895Z,87.14
2023-01-19T09:50:22.833Z,87.44
2023-01-19T09:53:22.285Z,87.75
2023-01-19T09:56:17.083Z,87.60
2023-01-19T09:59:22.018Z,87.49
2023-01-19T10:02:23.609Z,87.34
2023-01-19T10:05:28.289Z,87.80
2023-01-19T10:08:32.050Z,87.85
2023-01-19T10:11:51.832Z,87.84
2023-01-19T10:14:53.762Z,86.99
2023-01-19T10:17:49.315Z,86.83
2023-01-19T10:20:46.244Z,87.05
2023-01-19T10:23:46.926Z,86.48
2023-01-19T10:26:44.801Z,86.44
2023-01-19T10:29:42.692Z,86.56
2023-01-19T10:32:37.893Z,86.55
2023-01-19T10:35:32.714Z,85.58
2023-01-19T10:38:27.890Z,85.30
2023-01-19T10:41:27.581Z,85.47
2023-01-19T10:44:27.349Z,85.53
2023-01-19T10:47:18.242Z,86.32
2023-01-19T10:50:26.392Z,86.67
2023-01-19T10:53:22.425Z,86.78
2023-01-19T10:56:23.193Z,87.19
2023-01-19T10:59:31.961Z,87.40
2023-01-19T11:02:27.860Z,87.62
2023-01-19T11:05:29.398Z,87.55
2023-01-19T11:08:25.445Z,87.78
2023-01-19T11:11:18.965Z,88.15
2023-01-19T11:14:15.741Z,88.47
2023-01-19T11:17:18.962Z,88.58
2023-01-19T11:20:04.157Z,88.54
2023-01-19T11:23:18.084Z,88.91
2023-01-19T11:26:16.491Z,88.97
2023-01-19T11:29:17.336Z,88.94
2023-01-19T11:32:25.211Z,89.30
2023-01-19T11:35:38.504Z,89.45
2023-01-19T11:38:32.958Z,89.59
2023-01-19T11:41:22.680Z,89.59
2023-01-19T11:43:58.063Z,89.69
2023-01-19T11:46:39.772Z,89.97
2023-01-19T11:49:28.856Z,90.19
2023-01-19T11:52:27.502Z,90.01
2023-01-19T11:55:22.711Z,90.06
2023-01-19T11:58:08.901Z,90.26
2023-01-19T12:01:08.526Z,90.30
2023-01-19T12:04:06.571Z,90.13
2023-01-19T12:06:57.005Z,90.14
2023-01-19T12:09:46.684Z,90.17
2023-01-19T12:12:33.693Z,90.15
2023-01-19T12:15:33.421Z,90.21
2023-01-19T12:18:25.473Z,90.45
2023-01-19T12:21:11.379Z,90.43
2023-01-19T12:24:01.448Z,90.40
2023-01-19T12:26:57.641Z,90.88
2023-01-19T12:29:36.720Z,90.82
2023-01-19T12:32:34.511Z,90.80
2023-01-19T12:35:42.922Z,90.86
2023-01-19T12:38:41.910Z,91.11
2023-01-19T12:41:35.534Z,91.12
2023-01-19T12:44:34.333Z,91.18
2023-01-19T12:47:27.313Z,91.32
2023-01-19T12:50:09.273Z,91.09
2023-01-19T12:53:08.371Z,91.09
2023-01-19T12:56:06.227Z,91.26
2023-01-19T12:58:55.114Z,91.25
2023-01-19T13:01:28.061Z,91.31
2023-01-19T13:04:35.177Z,91.59
2023-01-19T13:07:18.040Z,91.52
2023-01-19T13:10:01.842Z,91.45
2023-01-19T13:12:35.587Z,91.61
2023-01-19T13:15:35.520Z,91.56
2023-01-19T13:18:14.129Z,91.57
2023-01-19T13:20:49.368Z,91.61
2023-01-19T13:23:28.397Z,91.56
2023-01-19T13:26:07.771Z,91.65
2023-01-19T13:28:44.890Z,91.75
2023-01-19T13:31:21.326Z,91.75
2023-01-19T13:33:58.389Z,91.75
2023-01-19T13:36:47.609Z,92.03
2023-01-19T13:39:36.960Z,91.88
2023-01-19T13:42:35.401Z,92.18
2023-01-19T13:45:31.198Z,92.44
2023-01-19T13:48:26.132Z,92.12
2023-01-19T13:51:04.109Z,92.01
2023-01-19T13:53:58.552Z,91.85
2023-01-19T13:56:42.782Z,91.77
2023-01-19T13:59:28.011Z,91.87
2023-01-19T14:02:16.430Z,91.54
2023-01-19T14:04:52.167Z,90.93
2023-01-19T14:07:29.025Z,90.62
2023-01-19T14:10:08.295Z,90.69
2023-01-19T14:13:04.133Z,90.51
2023-01-19T14:15:50.716Z,90.90
2023-01-19T14:18:31.363Z,91.04
2023-01-19T14:21:18.707Z,90.78
2023-01-19T14:24:17.847Z,90.53
2023-01-19T14:27:08.819Z,90.65
2023-01-19T14:29:45.703Z,90.51
2023-01-19T14:32:48.823Z,90.64
2023-01-19T14:35:41.673Z,90.85
2023-01-19T14:38:23.709Z,90.95
2023-01-19T14:41:28.400Z,91.15
2023-01-19T14:44:26.380Z,91.06
2023-01-19T14:47:34.646Z,91.22
2023-01-19T14:50:29.154Z,91.36
2023-01-19T14:53:21.317Z,91.55
2023-01-19T14:56:08.657Z,91.55
2023-01-19T14:58:56.363Z,91.93
2023-01-19T15:01:40.113Z,92.03
2023-01-19T15:04:23.255Z,92.17
2023-01-19T15:06:58.004Z,92.08
2023-01-19T15:09:34.075Z,92.41
2023-01-19T15:12:19.068Z,92.15
2023-01-19T15:15:02.601Z,92.35
2023-01-19T15:17:48.068Z,92.57
2023-01-19T15:20:32.592Z,92.61
2023-01-19T15:23:25.347Z,92.95
2023-01-19T15:26:11.538Z,93.06
2023-01-19T15:28:50.164Z,92.91
2023-01-19T15:31:42.976Z,93.22
2023-01-19T15:34:36.648Z,93.17
2023-01-19T15:37:29.397Z,93.36
2023-01-19T15:40:15.208Z,93.46
2023-01-19T15:43:08.277Z,93.57
2023-01-19T15:46:03.890Z,93.48
2023-01-19T15:48:48.472Z,93.49
2023-01-19T15:51:39.912Z,93.38
2023-01-19T15:54:17.793Z,93.35
2023-01-19T15:57:11.775Z,93.39
2023-01-19T16:00:05.231Z,93.60
2023-01-19T16:02:42.503Z,93.56
2023-01-19T16:05:43.025Z,93.43
2023-01-19T16:08:16.276Z,93.61
2023-01-19T16:11:12.487Z,93.63
2023-01-19T16:14:04.686Z,93.58
2023-01-19T16:17:00.879Z,93.94
2023-01-19T16:19:53.711Z,93.89
2023-01-19T16:22:45.421Z,93.81
2023-01-19T16:25:38.180Z,93.90
2023-01-19T16:28:31.551Z,94.16
2023-01-19T16:31:24.543Z,93.98
2023-01-19T16:34:18.315Z,94.12
2023-01-19T16:37:21.126Z,94.23
2023-01-19T16:40:15.353Z,94.25
2023-01-19T16:43:01.228Z,94.28
2023-01-19T16:46:00.307Z,94.30
2023-01-19T16:48:53.399Z,94.29
2023-01-19T16:51:46.876Z,94.47
2023-01-19T16:54:43.074Z,94.57
2023-01-19T16:57:36.187Z,94.58
2023-01-19T17:00:30.345Z,94.74
2023-01-19T17:03:23.673Z,94.93
2023-01-19T17:06:20.430Z,94.71
2023-01-19T17:09:13.507Z,94.84
2023-01-19T17:12:09.384Z,94.94
2023-01-19T17:14:54.732Z,95.22
2023-01-19T17:17:41.219Z,95.15
2023-01-19T17:20:35.574Z,95.01
2023-01-19T17:23:30.293Z,95.27
2023-01-19T17:26:03.373Z,95.26
2023-01-19T17:29:02.098Z,95.33
2023-01-19T17:31:46.025Z,95.39
2023-01-19T17:34:39.229Z,95.37
2023-01-19T17:37:25.890Z,95.44
2023-01-19T17:40:14.006Z,95.63
2023-01-19T17:42:57.043Z,95.51
2023-01-19T17:45:47.402Z,95.39
2023-01-19T17:48:42.578Z,95.44
2023-01-19T17:51:28.658Z,95.50
2023-01-19T17:54:15.500Z,95.35
2023-01-19T17:57:01.227Z,95.33
2023-01-19T17:59:46.996Z,95.26
2023-01-19T18:02:40.352Z,94.90
2023-01-19T18:05:26.163Z,95.03
2023-01-19T18:08:19.392Z,94.44
2023-01-19T18:11:12.523Z,94.18
2023-01-19T18:14:06.769Z,94.17
2023-01-19T18:16:50.607Z,94.19
2023-01-19T18:19:44.657Z,94.21
2023-01-19T18:22:36.444Z,94.05
2023-01-19T18:25:12.427Z,93.84
2023-01-19T18:27:59.279Z,94.06
2023-01-19T18:30:45.391Z,94.06
2023-01-19T18:33:28.976Z,94.03
2023-01-19T18:36:21.854Z,94.15
2023-01-19T18:39:15.235Z,94.04
2023-01-19T18:42:08.222Z,94.46
2023-01-19T18:45:01.314Z,94.37
2023-01-19T18:47:53.035Z,94.20
2023-01-19T18:50:45.783Z,94.25
2023-01-19T18:53:38.901Z,94.35
2023-01-19T18:56:32.972Z,94.28
2023-01-19T18:59:25.904Z,94.44
2023-01-19T19:02:18.850Z,94.48
2023-01-19T19:05:04.606Z,94.39
2023-01-19T19:07:57.410Z,94.63
2023-01-19T19:10:37.895Z,94.80
2023-01-19T19:13:31.000Z,94.81
2023-01-19T19:16:24.071Z,94.86
2023-01-19T19:19:02.852Z,95.02
2023-01-19T19:21:49.064Z,94.80
2023-01-19T19:24:21.841Z,94.99
2023-01-19T19:27:17.322Z,94.96
2023-01-19T19:30:12.645Z,94.92
2023-01-19T19:33:06.104Z,95.12
2023-01-19T19:35:59.192Z,95.04
2023-01-19T19:38:49.268Z,94.82
2023-01-19T19:41:57.554Z,95.16
2023-01-19T19:44:40.967Z,95.05
2023-01-19T19:47:34.005Z,95.07
2023-01-19T19:50:26.805Z,95.10
2023-01-19T19:53:13.419Z,95.28
2023-01-19T19:56:08.445Z,95.39
2023-01-19T19:59:02.003Z,95.38
2023-01-19T20:01:49.883Z,95.33
2023-01-19T20:04:43.136Z,95.38
2023-01-19T20:07:36.231Z,95.42
2023-01-19T20:10:30.166Z,95.52
2023-01-19T20:13:22.894Z,95.38
2023-01-19T20:16:17.401Z,95.27
2023-01-19T20:19:57.739Z,95.46
2023-01-19T20:22:24.181Z,95.18
2023-01-19T20:25:09.413Z,95.54
2023-01-19T20:28:02.180Z,95.78
2023-01-19T20:30:47.883Z,95.58
2023-01-19T20:33:41.973Z,95.78
2023-01-19T20:36:37.857Z,95.82
2023-01-19T20:39:33.395Z,95.79
2023-01-19T20:42:26.271Z,96.00
2023-01-19T20:45:20.848Z,96.15
2023-01-19T20:48:04.704Z,96.14
2023-01-19T20:51:02.669Z,96.26
2023-01-19T20:53:48.054Z,96.30
2023-01-19T20:56:41.280Z,96.29
2023-01-19T20:59:36.962Z,96.34
2023-01-19T21:02:16.865Z,96.30
2023-01-19T21:04:54.849Z,96.42
2023-01-19T21:07:29.947Z,96.54
2023-01-19T21:10:15.962Z,96.72
2023-01-19T21:13:08.707Z,96.47
2023-01-19T21:16:01.458Z,96.48
2023-01-19T21:18:54.696Z,96.62
2023-01-19T21:21:48.013Z,96.64
2023-01-19T21:24:42.169Z,96.58
2023-01-19T21:27:36.743Z,96.54
2023-01-19T21:30:29.672Z,96.50
2023-01-19T21:33:23.169Z,96.55
2023-01-19T21:36:15.933Z,96.66
2023-01-19T21:39:09.252Z,96.53
2023-01-19T21:42:02.711Z,96.45
2023-01-19T21:44:49.884Z,96.63
2023-01-19T21:47:42.699Z,96.71
2023-01-19T21:50:28.498Z,96.74
2023-01-19T21:53:21.244Z,96.70
2023-01-19T21:56:16.880Z,96.71
2023-01-19T21:59:03.629Z,96.70
2023-01-19T22:01:57.513Z,96.52
2023-01-19T22:04:50.491Z,96.46
2023-01-19T22:07:43.429Z,96.50
2023-01-19T22:10:38.559Z,96.26
2023-01-19T22:13:31.786Z,96.38
2023-01-19T22:16:25.513Z,96.42
2023-01-19T22:19:14.552Z,96.35
2023-01-19T22:22:07.332Z,96.26
2023-01-19T22:24:58.519Z,96.31
2023-01-19T22:27:52.395Z,96.35
2023-01-19T22:30:45.617Z,96.27
2023-01-19T22:33:38.730Z,96.25
2023-01-19T22:36:34.092Z,96.23
2023-01-19T22:39:28.398Z,96.13
2023-01-19T22:42:19.938Z,96.22
2023-01-19T22:45:15.390Z,96.09
2023-01-19T22:47:59.410Z,96.19
2023-01-19T22:50:58.638Z,96.08
2023-01-19T22:53:51.680Z,96.05
2023-01-19T22:56:45.866Z,96.10
2023-01-19T22:59:37.677Z,96.04
2023-01-19T23:02:24.517Z,95.93
2023-01-19T23:05:17.587Z,95.89
2023-01-19T23:08:12.835Z,95.93
2023-01-19T23:11:11.087Z,95.76
2023-01-19T23:14:04.521Z,95.94
2023-01-19T23:16:57.294Z,95.97
2023-01-19T23:19:50.408Z,96.11
2023-01-19T23:22:43.155Z,96.30
2023-01-19T23:25:37.208Z,96.48
2023-01-19T23:28:34.227Z,96.37
2023-01-19T23:31:29.704Z,96.60
2023-01-19T23:34:22.545Z,96.62
2023-01-19T23:37:15.389Z,96.72
2023-01-19T23:40:10.195Z,96.72
2023-01-19T23:43:03.154Z,96.90
2023-01-19T23:45:55.991Z,96.76
2023-01-19T23:48:49.323Z,96.70
2023-01-19T23:51:43.149Z,96.66
2023-01-19T23:54:36.455Z,96.58
2023-01-19T23:57:31.436Z,96.71
